Terminal Aerodrome Forecast
Issued by NWS

Home | Current Version | Previous Version | Text Only | Print | Product List | Glossary On
Versions: 1 2 3 4 5 6 7 8 9 10 11 12 13 14 15 16
000
FTUS42 KMLB 011135
TAFTIX
TAF
KTIX 011135Z 0112/0212 04006KT P6SM SCT015 BKN035
     FM011400 13006KT P6SM SCT015 BKN025
     FM011800 12008KT P6SM VCSH BKN035
     FM020000 06003KT P6SM SCT020 BKN080
     FM020600 03003KT 3SM BR OVC003
      TEMPO 0209/0212 1SM BR=

USA.gov is the U.S. government's official web portal to all federal, state and local government web resources and services.